Time;durP1;ratioP1;P1;durP2;ratioP2;P2;SDS_P1;SDS_P2;PMS_P1;PMS_P2;Temp;Humidity;BMP_temperature;BMP_pressure;BME280_temperature;BME280_humidity;BME280_pressure;Samples;Min_cycle;Max_cycle;Signal;HPM_P1;HPM_P2
2023/05/04 00:01:03;;;;;;;9.70;2.13;;;;;;;3.49;49.02;102692.06;5024131;28;20512;-71
2023/05/04 00:03:28;;;;;;;6.70;1.40;;;;;;;3.54;48.49;102680.97;5021008;28;20413;-68
2023/05/04 00:05:54;;;;;;;6.10;2.40;;;;;;;3.58;48.34;102677.63;5022297;28;20075;-70
2023/05/04 00:08:19;;;;;;;3.22;1.42;;;;;;;3.55;48.45;102679.25;5020147;28;20071;-69
2023/05/04 00:10:45;;;;;;;2.55;1.70;;;;;;;3.68;48.15;102683.81;5021646;28;20095;-71
2023/05/04 00:13:13;;;;;;;8.77;2.00;;;;;;;3.66;48.31;102684.63;5020279;28;20855;-70
2023/05/04 00:15:39;;;;;;;3.83;1.98;;;;;;;3.59;48.24;102679.34;5018287;28;20040;-72
2023/05/04 00:18:05;;;;;;;5.88;2.78;;;;;;;3.57;48.61;102677.56;5021818;28;20029;-72
2023/05/04 00:20:30;;;;;;;5.07;2.45;;;;;;;3.59;48.52;102676.75;5011551;28;20040;-70
2023/05/04 00:22:55;;;;;;;4.95;1.92;;;;;;;3.62;48.08;102677.66;5020244;28;20152;-69
2023/05/04 00:25:21;;;;;;;7.38;2.13;;;;;;;3.54;48.27;102683.56;4995783;28;20260;-72
2023/05/04 00:27:46;;;;;;;4.72;1.88;;;;;;;3.55;48.78;102677.53;5000642;28;20029;-72
2023/05/04 00:30:12;;;;;;;7.32;2.03;;;;;;;3.54;48.51;102669.78;5000141;28;20747;-74
2023/05/04 00:32:38;;;;;;;3.45;2.28;;;;;;;3.53;48.72;102678.38;4984884;28;20560;-71
2023/05/04 00:35:04;;;;;;;4.40;1.55;;;;;;;3.47;49.03;102673.06;5003227;28;20048;-72
2023/05/04 00:37:29;;;;;;;12.13;2.08;;;;;;;3.45;48.83;102670.47;5000885;28;20474;-73
2023/05/04 00:39:55;;;;;;;5.53;2.25;;;;;;;3.41;49.33;102672.97;4997039;28;20144;-72
2023/05/04 00:42:20;;;;;;;5.35;2.17;;;;;;;3.48;48.92;102662.78;4982368;28;22597;-73
2023/05/04 00:44:46;;;;;;;5.57;2.13;;;;;;;3.47;49.11;102666.22;5002555;28;20099;-73
2023/05/04 00:47:12;;;;;;;3.70;2.13;;;;;;;3.42;49.10;102657.47;4999950;28;20498;-70
2023/05/04 00:49:38;;;;;;;5.32;3.10;;;;;;;3.48;48.96;102660.19;4999760;28;20037;-71
2023/05/04 00:52:04;;;;;;;5.80;2.25;;;;;;;3.41;49.07;102655.75;4983716;28;20226;-70
2023/05/04 00:54:31;;;;;;;4.47;1.98;;;;;;;3.38;49.63;102658.25;4998824;28;20037;-70
2023/05/04 00:56:57;;;;;;;5.18;1.92;;;;;;;3.44;49.13;102653.22;4995530;28;20158;-71
2023/05/04 00:59:23;;;;;;;8.88;2.47;;;;;;;3.41;49.14;102653.16;4994902;28;20484;-70
2023/05/04 01:01:48;;;;;;;4.30;2.20;;;;;;;3.41;49.55;102648.00;5000307;28;20129;-71
2023/05/04 01:04:15;;;;;;;4.53;2.20;;;;;;;3.37;49.62;102644.47;4999855;28;20041;-71
2023/05/04 01:07:05;;;;;;;2.65;1.40;;;;;;;3.41;49.28;102641.97;4993239;28;20034;-72
2023/05/04 01:09:38;;;;;;;4.72;1.40;;;;;;;3.41;49.33;102639.38;4998782;28;20061;-69
2023/05/04 01:12:16;;;;;;;3.15;2.03;;;;;;;3.42;49.27;102634.22;4993183;28;20046;-70
2023/05/04 01:14:42;;;;;;;8.30;2.13;;;;;;;3.42;49.68;102641.97;4975362;28;20601;-70
2023/05/04 01:17:08;;;;;;;6.85;1.73;;;;;;;3.42;49.74;102639.38;5003601;28;20410;-76
2023/05/04 01:19:34;;;;;;;5.25;1.92;;;;;;;3.47;49.07;102631.72;4995404;28;21628;-74
2023/05/04 01:22:01;;;;;;;7.93;2.38;;;;;;;3.43;49.52;102633.38;4996197;28;20025;-75
2023/05/04 01:24:28;;;;;;;4.18;2.13;;;;;;;3.46;49.36;102629.97;4996742;28;20048;-75
2023/05/04 01:27:10;;;;;;;5.97;2.17;;;;;;;3.36;49.74;102626.38;4987145;28;20072;-76
2023/05/04 01:29:48;;;;;;;;;;;;;;;3.50;49.40;102631.78;4997574;28;20042;-74
2023/05/04 01:32:16;;;;;;;5.88;1.88;;;;;;;3.36;49.61;102628.97;5017997;28;19921;-77
2023/05/04 01:34:41;;;;;;;4.07;2.53;;;;;;;3.46;49.36;102629.97;4986616;28;20105;-77
2023/05/04 01:37:07;;;;;;;6.60;2.15;;;;;;;3.47;49.83;102632.59;4987963;28;20036;-78
2023/05/04 01:39:35;;;;;;;4.57;1.45;;;;;;;3.46;49.12;102629.97;4980434;28;20038;-76
2023/05/04 01:42:01;;;;;;;2.90;1.98;;;;;;;3.47;49.61;102627.44;5004513;28;20083;-76
2023/05/04 01:44:26;;;;;;;3.15;1.98;;;;;;;3.42;49.61;102623.00;4993713;28;20045;-76
2023/05/04 01:46:52;;;;;;;6.70;1.80;;;;;;;3.41;49.46;102627.31;5002004;28;23186;-77
2023/05/04 01:49:17;;;;;;;3.15;1.75;;;;;;;3.39;49.76;102623.81;4997924;28;20048;-77
2023/05/04 01:51:44;;;;;;;2.63;1.38;;;;;;;3.22;50.24;102620.03;4996606;28;20063;-78
2023/05/04 01:54:10;;;;;;;6.97;2.08;;;;;;;3.38;49.99;102619.47;5004688;28;20107;-76
2023/05/04 01:56:36;;;;;;;6.47;1.63;;;;;;;3.33;49.92;102615.97;4981116;28;20362;-77
2023/05/04 01:59:02;;;;;;;4.28;1.85;;;;;;;3.42;49.95;102623.88;5001664;28;20127;-77
2023/05/04 02:01:27;;;;;;;7.78;1.73;;;;;;;3.41;50.01;102622.16;4981988;28;20061;-77
2023/05/04 02:03:52;;;;;;;8.98;1.70;;;;;;;3.25;50.00;102613.22;5000041;28;20048;-73
2023/05/04 02:06:18;;;;;;;6.68;2.20;;;;;;;3.42;50.29;102623.00;4999609;28;20094;-73
2023/05/04 02:08:44;;;;;;;4.38;1.80;;;;;;;3.44;50.53;102616.16;4998881;28;20702;-71
2023/05/04 02:11:10;;;;;;;5.90;1.98;;;;;;;3.44;50.45;102611.84;5002868;28;20809;-71
2023/05/04 02:13:36;;;;;;;4.32;2.28;;;;;;;3.42;50.63;102610.09;4992459;28;20049;-72
2023/05/04 02:16:01;;;;;;;6.18;2.15;;;;;;;3.45;50.52;102597.19;4985944;28;20048;-72
2023/05/04 02:18:27;;;;;;;5.32;1.77;;;;;;;3.51;50.88;102603.34;4977878;28;20124;-72
2023/05/04 02:20:52;;;;;;;8.05;2.20;;;;;;;3.53;50.82;102598.22;4976135;28;20567;-72
2023/05/04 02:23:18;;;;;;;6.05;1.70;;;;;;;3.54;51.19;102598.25;4998145;28;20132;-73
2023/05/04 02:25:43;;;;;;;9.10;2.35;;;;;;;3.65;51.04;102598.44;4996467;28;20568;-74
2023/05/04 02:28:09;;;;;;;8.57;1.70;;;;;;;3.69;50.92;102599.34;4998848;28;20095;-74
2023/05/04 02:30:36;;;;;;;3.90;1.67;;;;;;;3.66;50.80;102601.88;4996987;28;20117;-73
2023/05/04 02:33:01;;;;;;;6.20;2.17;;;;;;;3.70;51.01;102601.09;4984549;28;20029;-73
2023/05/04 02:35:27;;;;;;;6.28;1.92;;;;;;;3.74;50.51;102595.13;4996430;28;20033;-74
2023/05/04 02:37:52;;;;;;;5.25;1.85;;;;;;;3.84;50.80;102591.81;4997394;28;20753;-73
2023/05/04 02:40:18;;;;;;;3.50;1.25;;;;;;;3.77;50.46;102596.03;4999794;28;20549;-74
2023/05/04 02:42:43;;;;;;;4.97;1.48;;;;;;;3.74;50.42;102593.41;5000402;28;20371;-72
2023/05/04 02:45:10;;;;;;;7.80;2.28;;;;;;;3.78;50.21;102582.28;4986098;28;20120;-72
2023/05/04 02:47:35;;;;;;;4.90;1.80;;;;;;;3.62;50.82;102589.75;4994786;28;20033;-73
2023/05/04 02:50:01;;;;;;;4.13;1.38;;;;;;;3.62;50.29;102593.19;4983458;28;20049;-74
2023/05/04 02:52:26;;;;;;;7.57;1.70;;;;;;;3.57;50.72;102590.53;4995362;28;20048;-73
2023/05/04 02:54:52;;;;;;;4.85;1.60;;;;;;;3.58;50.68;102588.81;4991189;28;21298;-74
2023/05/04 02:57:17;;;;;;;6.05;1.98;;;;;;;3.69;50.13;102591.59;4998431;28;20033;-74
2023/05/04 02:59:43;;;;;;;4.95;1.77;;;;;;;3.61;50.43;102582.84;4983360;28;20343;-75
2023/05/04 03:02:08;;;;;;;4.80;2.45;;;;;;;3.65;50.30;102587.19;5006524;28;20092;-72
2023/05/04 03:04:34;;;;;;;5.35;2.00;;;;;;;3.59;50.24;102585.41;5011089;28;20045;-71
2023/05/04 03:06:59;;;;;;;6.97;1.73;;;;;;;3.54;50.30;102582.75;5004693;28;20033;-73
2023/05/04 03:09:25;;;;;;;6.20;2.58;;;;;;;3.57;50.22;102580.19;5001227;28;20474;-74
2023/05/04 03:11:50;;;;;;;5.97;2.13;;;;;;;3.39;50.49;102577.31;4996362;28;20033;-73
2023/05/04 03:14:16;;;;;;;9.30;2.30;;;;;;;3.59;50.08;102585.41;4986102;28;20064;-75
2023/05/04 03:16:41;;;;;;;9.40;1.80;;;;;;;3.55;50.23;102574.13;4994222;28;21133;-72
2023/05/04 03:19:07;;;;;;;4.78;2.30;;;;;;;3.52;50.07;102579.25;5004184;28;20041;-72
2023/05/04 03:21:33;;;;;;;5.55;2.25;;;;;;;3.49;50.13;102573.16;4999198;28;20029;-72
2023/05/04 03:23:59;;;;;;;7.78;2.28;;;;;;;3.46;50.66;102573.97;5005043;28;20840;-72
2023/05/04 03:26:24;;;;;;;6.00;2.55;;;;;;;3.59;50.35;102570.75;5002322;28;20041;-72
2023/05/04 03:28:50;;;;;;;6.78;2.05;;;;;;;3.74;49.91;102564.09;5002915;28;20034;-70
2023/05/04 03:31:15;;;;;;;6.13;2.17;;;;;;;3.78;49.82;102559.00;5007882;28;20160;-74
2023/05/04 03:33:41;;;;;;;5.55;1.50;;;;;;;3.83;49.79;102563.34;5000335;28;20088;-68
2023/05/04 03:36:08;;;;;;;3.97;1.70;;;;;;;3.91;49.12;102557.44;5007472;28;20040;-70
2023/05/04 03:38:35;;;;;;;7.72;2.08;;;;;;;3.84;49.20;102560.78;4997558;28;20104;-74
2023/05/04 03:41:00;;;;;;;4.90;2.47;;;;;;;3.71;49.86;102553.69;5004489;28;20033;-75
2023/05/04 03:43:26;;;;;;;8.68;2.10;;;;;;;3.65;50.02;102553.56;5000001;28;20045;-75
2023/05/04 03:45:52;;;;;;;7.57;2.40;;;;;;;3.72;49.90;102560.63;5006304;28;20037;-75
2023/05/04 03:48:17;;;;;;;6.25;2.22;;;;;;;3.80;49.63;102565.03;5002853;28;20533;-76
2023/05/04 03:50:43;;;;;;;10.07;2.47;;;;;;;3.74;50.06;102562.38;5002154;28;20083;-76
2023/05/04 03:53:08;;;;;;;3.13;1.33;;;;;;;3.80;49.74;102559.00;4996960;28;20037;-68
2023/05/04 03:55:34;;;;;;;8.18;2.25;;;;;;;3.82;49.62;102554.72;4979826;28;20130;-72
2023/05/04 03:58:00;;;;;;;4.45;1.70;;;;;;;3.81;49.88;102555.56;4978628;28;20103;-72
2023/05/04 04:00:26;;;;;;;8.20;1.83;;;;;;;3.88;49.76;102557.41;5000705;28;20152;-73
2023/05/04 04:03:00;;;;;;;6.07;1.90;;;;;;;3.79;50.16;102552.09;5001146;28;20495;-71
2023/05/04 04:05:27;;;;;;;9.02;2.60;;;;;;;3.77;49.97;102548.63;4995355;28;20025;-72
2023/05/04 04:07:53;;;;;;;5.55;2.22;;;;;;;3.82;50.01;102546.09;5000182;28;20042;-72
2023/05/04 04:10:19;;;;;;;6.28;1.85;;;;;;;3.88;49.46;102541.88;5001886;28;20043;-71
2023/05/04 04:12:46;;;;;;;9.70;2.50;;;;;;;3.91;49.84;102536.75;4999918;28;20083;-70
2023/05/04 04:15:12;;;;;;;5.90;2.35;;;;;;;4.05;49.59;102534.38;4999638;28;20132;-72
2023/05/04 04:17:37;;;;;;;5.40;2.45;;;;;;;4.12;49.46;102535.28;4999635;28;20030;-70
2023/05/04 04:20:03;;;;;;;5.38;1.92;;;;;;;4.12;49.55;102540.47;5001832;28;20124;-74
2023/05/04 04:22:29;;;;;;;7.10;2.17;;;;;;;4.15;49.81;102541.41;4998656;28;20152;-72
2023/05/04 04:24:55;;;;;;;4.95;1.77;;;;;;;4.31;49.16;102536.44;4999156;28;20613;-73
2023/05/04 04:27:20;;;;;;;7.93;2.58;;;;;;;4.36;49.13;102539.94;5003179;28;20037;-70
2023/05/04 04:29:46;;;;;;;8.40;2.33;;;;;;;4.49;48.72;102540.97;4999608;28;20095;-70
2023/05/04 04:32:12;;;;;;;8.30;2.35;;;;;;;4.57;48.58;102540.22;5003550;28;20132;-73
2023/05/04 04:34:37;;;;;;;7.97;2.38;;;;;;;4.59;48.54;102538.50;5001129;28;20041;-78
2023/05/04 04:37:03;;;;;;;9.52;2.45;;;;;;;4.58;49.35;102543.66;4988163;28;20043;-71
2023/05/04 04:39:28;;;;;;;8.88;2.53;;;;;;;4.65;48.99;102542.88;5002052;28;20182;-73
2023/05/04 04:41:54;;;;;;;10.10;2.65;;;;;;;4.78;48.63;102533.53;4998960;28;20583;-74
2023/05/04 04:44:22;;;;;;;12.23;2.88;;;;;;;5.01;48.59;102534.69;4993671;28;20037;-74
2023/05/04 04:46:48;;;;;;;7.43;2.45;;;;;;;5.13;48.16;102535.66;5002630;28;20033;-71
2023/05/04 04:49:13;;;;;;;8.85;2.00;;;;;;;5.25;47.71;102530.56;4996912;28;20042;-74
2023/05/04 04:51:42;;;;;;;7.28;2.22;;;;;;;5.39;47.39;102528.06;4999167;28;20703;-73
2023/05/04 04:54:07;;;;;;;11.20;2.80;;;;;;;5.55;47.21;102529.97;5003784;28;20052;-72
2023/05/04 04:56:33;;;;;;;8.55;2.50;;;;;;;5.52;47.31;102534.25;4999570;28;20663;-72
2023/05/04 04:58:58;;;;;;;9.15;2.72;;;;;;;5.56;46.95;102530.81;5002637;28;20388;-71
2023/05/04 05:01:25;;;;;;;6.63;2.17;;;;;;;5.59;47.05;102526.53;5002929;28;20506;-72
2023/05/04 05:03:50;;;;;;;10.45;2.42;;;;;;;5.79;46.36;102528.38;4999170;28;20037;-71
2023/05/04 05:06:16;;;;;;;9.95;2.38;;;;;;;5.99;46.22;102531.09;4986317;28;20029;-74
2023/05/04 05:08:42;;;;;;;9.48;1.90;;;;;;;6.16;46.24;102532.06;5000476;28;20046;-71
2023/05/04 05:11:09;;;;;;;7.68;3.00;;;;;;;6.35;45.95;102535.66;5002167;28;20048;-70
2023/05/04 05:13:34;;;;;;;6.38;2.58;;;;;;;6.48;45.09;102531.34;4995887;28;20099;-72
2023/05/04 05:16:00;;;;;;;9.55;2.20;;;;;;;6.59;45.21;102534.00;5002224;28;20033;-72
2023/05/04 05:18:26;;;;;;;6.75;2.13;;;;;;;6.64;44.93;102534.88;5005619;28;20037;-74
2023/05/04 05:20:51;;;;;;;10.63;2.80;;;;;;;6.72;44.46;102530.56;5019639;28;20036;-72
2023/05/04 05:23:17;;;;;;;13.40;3.33;;;;;;;6.70;45.05;102527.97;5019601;28;20032;-74
2023/05/04 05:25:43;;;;;;;8.85;2.95;;;;;;;6.57;44.66;102527.91;5018054;28;20044;-73
2023/05/04 05:28:09;;;;;;;9.68;3.13;;;;;;;6.70;44.87;102521.91;5023423;28;20112;-74
2023/05/04 05:30:35;;;;;;;8.18;2.10;;;;;;;6.73;44.76;102523.63;5016905;28;20082;-69
2023/05/04 05:33:02;;;;;;;8.55;2.88;;;;;;;6.96;43.37;102529.75;5021021;28;20032;-71
2023/05/04 05:35:28;;;;;;;8.27;2.13;;;;;;;7.09;43.91;102521.13;4995924;28;20369;-71
2023/05/04 05:37:53;;;;;;;6.80;2.55;;;;;;;7.47;43.11;102527.19;4991861;28;20474;-69
2023/05/04 05:40:21;;;;;;;12.48;2.90;;;;;;;7.38;43.11;102516.78;4998958;28;20207;-69
2023/05/04 05:42:47;;;;;;;5.50;2.13;;;;;;;7.78;42.91;102527.16;4997065;28;20033;-70
2023/05/04 05:45:13;;;;;;;4.40;2.35;;;;;;;7.97;42.24;102518.44;5010509;28;20041;-69
2023/05/04 05:47:39;;;;;;;7.32;2.58;;;;;;;8.14;41.49;102514.06;4994140;28;20648;-69
2023/05/04 05:50:05;;;;;;;7.90;2.42;;;;;;;8.20;40.63;102509.69;4991386;28;20112;-69
2023/05/04 05:52:30;;;;;;;9.88;2.90;;;;;;;8.36;41.51;102512.25;4992315;28;20690;-70
2023/05/04 05:54:56;;;;;;;8.75;2.83;;;;;;;8.67;40.74;102511.19;4997570;28;20041;-70
2023/05/04 05:57:21;;;;;;;9.82;2.13;;;;;;;8.85;40.06;102507.66;5001493;28;20116;-70
2023/05/04 05:59:47;;;;;;;6.43;3.20;;;;;;;8.75;40.26;102512.91;5012793;28;20123;-71
2023/05/04 06:02:13;;;;;;;6.45;2.80;;;;;;;8.13;40.51;102508.84;5018965;28;20035;-70
2023/05/04 06:04:43;;;;;;;5.50;2.42;;;;;;;8.00;40.79;102513.22;5016186;28;20032;-71
2023/05/04 06:07:09;;;;;;;8.85;2.40;;;;;;;8.05;41.63;102515.84;5020294;28;20135;-70
2023/05/04 06:09:35;;;;;;;4.35;2.08;;;;;;;8.21;40.54;102511.44;4998736;28;20061;-69
2023/05/04 06:12:01;;;;;;;13.65;2.55;;;;;;;7.96;40.42;102514.13;4997791;28;20037;-70
2023/05/04 06:14:27;;;;;;;7.00;2.28;;;;;;;7.56;41.21;102510.72;4997104;28;20785;-70
2023/05/04 06:16:52;;;;;;;6.57;2.13;;;;;;;7.58;40.85;102514.19;4998931;28;21073;-69
2023/05/04 06:19:18;;;;;;;5.55;2.42;;;;;;;7.58;41.64;102515.06;4999863;28;20045;-70
2023/05/04 06:21:44;;;;;;;7.10;1.90;;;;;;;7.66;41.26;102510.69;4994125;28;20136;-70
2023/05/04 06:24:09;;;;;;;10.68;2.67;;;;;;;8.25;41.32;102505.31;5004114;28;20067;-78
2023/05/04 06:26:35;;;;;;;5.68;2.63;;;;;;;8.40;40.24;102507.88;5000816;28;20033;-75
2023/05/04 06:29:00;;;;;;;3.45;2.63;;;;;;;8.13;40.31;102501.91;5000544;28;20044;-72
2023/05/04 06:31:26;;;;;;;6.43;2.97;;;;;;;8.24;40.06;102504.47;4999615;28;20044;-70
2023/05/04 06:33:52;;;;;;;4.68;1.73;;;;;;;8.82;39.28;102500.72;4996043;28;20033;-70
2023/05/04 06:36:18;;;;;;;5.93;2.65;;;;;;;8.91;38.46;102495.44;5000449;28;20029;-70
2023/05/04 06:38:43;;;;;;;6.18;2.45;;;;;;;10.17;37.36;102499.47;4996703;28;20037;-71
2023/05/04 06:41:09;;;;;;;4.30;1.92;;;;;;;11.02;35.06;102507.03;5001819;28;20030;-72
2023/05/04 06:43:34;;;;;;;4.55;1.95;;;;;;;11.86;33.08;102494.19;4996100;28;20130;-72
2023/05/04 06:46:03;;;;;;;7.30;1.83;;;;;;;11.81;32.69;102493.44;4999117;28;20151;-72
2023/05/04 06:48:30;;;;;;;7.72;2.28;;;;;;;11.09;33.99;102501.69;4996835;28;20524;-73
2023/05/04 06:50:56;;;;;;;6.35;1.83;;;;;;;10.70;34.40;102498.75;4996788;28;20095;-74
2023/05/04 06:53:21;;;;;;;7.78;2.17;;;;;;;11.00;34.46;102492.25;4997666;28;20053;-73
2023/05/04 06:55:47;;;;;;;4.97;2.40;;;;;;;10.34;35.02;102490.53;4997312;28;20623;-73
2023/05/04 06:58:12;;;;;;;6.88;1.85;;;;;;;10.73;35.05;102478.66;4997860;28;20048;-73
2023/05/04 07:00:38;;;;;;;10.88;2.08;;;;;;;11.77;33.47;102483.00;4997052;28;20452;-71
2023/05/04 07:03:03;;;;;;;6.25;1.65;;;;;;;12.31;33.37;102479.31;4998673;28;20044;-75
2023/05/04 07:05:32;;;;;;;7.45;2.55;;;;;;;13.04;31.23;102469.75;4998588;28;20124;-75
2023/05/04 07:07:58;;;;;;;4.38;1.80;;;;;;;11.64;32.46;102470.16;4991020;28;20057;-73
2023/05/04 07:10:23;;;;;;;4.53;2.22;;;;;;;10.93;33.52;102470.53;4981281;28;20037;-68
2023/05/04 07:12:49;;;;;;;8.35;1.85;;;;;;;11.00;33.98;102466.94;4997430;28;20045;-71
2023/05/04 07:15:15;;;;;;;5.70;2.17;;;;;;;11.43;33.74;102460.94;4995339;28;20293;-71
2023/05/04 07:17:41;;;;;;;8.68;2.20;;;;;;;11.51;32.96;102458.19;4996920;28;20216;-68
2023/05/04 07:20:07;;;;;;;7.38;2.25;;;;;;;11.92;32.61;102460.94;4996938;28;20069;-71
2023/05/04 07:22:32;;;;;;;6.53;2.80;;;;;;;12.43;31.99;102455.47;4999508;28;20128;-68
2023/05/04 07:24:59;;;;;;;6.95;1.80;;;;;;;12.27;31.65;102440.06;4998408;28;20052;-71
2023/05/04 07:27:25;;;;;;;6.07;1.58;;;;;;;12.57;31.75;102444.66;4989934;28;20581;-71
2023/05/04 07:29:50;;;;;;;5.72;1.95;;;;;;;12.00;31.87;102443.28;4997588;28;20037;-71
2023/05/04 07:32:16;;;;;;;3.70;1.52;;;;;;;12.13;32.19;102449.13;4993741;28;20030;-69
2023/05/04 07:34:45;;;;;;;5.95;2.15;;;;;;;12.70;31.56;102439.09;4997820;28;20774;-69
2023/05/04 07:37:11;;;;;;;4.78;1.85;;;;;;;13.57;30.35;102439.53;4996728;28;20451;-68
2023/05/04 07:39:40;;;;;;;4.43;2.30;;;;;;;13.65;30.50;102438.44;4997648;28;20535;-69
2023/05/04 07:42:10;;;;;;;9.20;1.98;;;;;;;14.23;29.36;102443.75;5012691;28;20884;-71
2023/05/04 07:44:35;;;;;;;6.22;1.67;;;;;;;14.25;28.85;102436.63;4999677;28;20057;-69
2023/05/04 07:47:01;;;;;;;5.43;1.73;;;;;;;15.14;27.85;102427.63;4995603;28;20064;-68
2023/05/04 07:49:26;;;;;;;7.72;2.83;;;;;;;15.73;27.55;102426.44;4998110;28;20065;-69
2023/05/04 07:51:52;;;;;;;6.50;2.15;;;;;;;17.09;25.82;102422.81;4981698;28;20636;-69
2023/05/04 07:54:18;;;;;;;11.05;1.88;;;;;;;18.20;24.50;102416.00;5001560;28;20045;-70
2023/05/04 07:56:47;;;;;;;5.75;2.03;;;;;;;18.17;23.57;102417.94;4997200;28;20120;-69
2023/05/04 07:59:16;;;;;;;4.00;1.95;;;;;;;17.01;25.16;102416.97;5001396;28;20121;-69
2023/05/04 08:01:41;;;;;;;6.18;1.60;;;;;;;16.62;26.37;102412.41;5000872;28;20462;-69
2023/05/04 08:04:07;;;;;;;7.75;1.35;;;;;;;16.90;25.64;102414.78;5000772;28;20042;-69
2023/05/04 08:06:34;;;;;;;3.95;1.52;;;;;;;17.31;25.16;102400.69;5001224;28;20629;-69
2023/05/04 08:08:59;;;;;;;5.35;2.33;;;;;;;17.59;24.85;102409.16;5000210;28;20041;-69
2023/05/04 08:11:25;;;;;;;6.70;1.70;;;;;;;17.28;24.60;102400.84;5002619;28;20540;-69
2023/05/04 08:13:51;;;;;;;10.00;2.28;;;;;;;17.65;24.85;102408.88;5001713;28;20473;-69
2023/05/04 08:16:16;;;;;;;8.88;1.52;;;;;;;17.88;24.04;102412.22;5002106;28;20037;-69
2023/05/04 08:18:42;;;;;;;3.20;1.73;;;;;;;18.74;22.95;102412.50;5000808;28;20258;-69
2023/05/04 08:21:07;;;;;;;6.28;1.10;;;;;;;18.10;24.08;102411.22;4981470;28;20029;-70
2023/05/04 08:23:33;;;;;;;5.65;1.85;;;;;;;18.61;23.27;102407.00;4996223;28;20037;-68
2023/05/04 08:26:05;;;;;;;2.67;1.25;;;;;;;17.84;24.01;102405.38;4978869;28;20041;-69
2023/05/04 08:28:37;;;;;;;10.68;2.08;;;;;;;17.93;23.81;102399.63;4999230;28;20432;-69
2023/05/04 08:31:03;;;;;;;6.32;1.45;;;;;;;17.17;24.91;102403.97;5000932;28;20041;-69
2023/05/04 08:33:29;;;;;;;2.92;1.20;;;;;;;16.97;24.60;102396.91;4995541;28;20240;-68
2023/05/04 08:35:54;;;;;;;6.43;1.80;;;;;;;17.08;24.75;102394.66;4998676;28;20068;-68
2023/05/04 08:38:20;;;;;;;6.00;1.70;;;;;;;17.96;23.85;102394.22;4996385;28;20041;-70
2023/05/04 08:40:47;;;;;;;4.03;1.42;;;;;;;18.17;23.92;102391.47;4998267;28;20025;-69
2023/05/04 08:43:13;;;;;;;4.72;0.90;;;;;;;18.92;23.48;102389.56;4999506;28;20909;-69
2023/05/04 08:45:39;;;;;;;4.78;1.85;;;;;;;19.63;22.25;102387.53;4995213;28;20039;-69
2023/05/04 08:48:06;;;;;;;3.15;1.20;;;;;;;19.63;21.71;102376.94;4999119;28;20030;-69
2023/05/04 08:50:36;;;;;;;3.15;1.17;;;;;;;19.48;22.49;102378.63;4996729;28;20037;-69
2023/05/04 08:53:05;;;;;;;7.30;1.33;;;;;;;19.43;22.19;102380.63;4998487;28;20099;-69
2023/05/04 08:55:36;;;;;;;5.63;1.90;;;;;;;18.87;23.77;102389.75;4997285;28;20140;-69
2023/05/04 08:58:09;;;;;;;6.93;2.17;;;;;;;18.63;23.89;102381.25;4996324;28;20080;-69
2023/05/04 09:00:36;;;;;;;5.85;1.60;;;;;;;18.08;24.02;102381.34;4996548;28;20037;-68
2023/05/04 09:03:03;;;;;;;5.07;2.10;;;;;;;17.71;24.56;102372.50;4998229;28;20111;-69
2023/05/04 09:05:29;;;;;;;6.75;1.58;;;;;;;18.42;24.10;102373.47;4997048;28;20056;-69
2023/05/04 09:07:55;;;;;;;5.15;0.95;;;;;;;18.58;22.93;102375.34;5000240;28;20581;-68
2023/05/04 09:10:20;;;;;;;5.50;1.80;;;;;;;17.68;23.90;102362.91;4997601;28;20068;-68
2023/05/04 09:12:46;;;;;;;4.85;1.35;;;;;;;17.27;24.38;102362.13;4996449;28;20128;-69
2023/05/04 09:15:18;;;;;;;4.38;1.45;;;;;;;17.17;25.48;102359.91;4998813;28;20048;-69
2023/05/04 09:17:57;;;;;;;7.43;1.45;;;;;;;16.99;25.41;102358.94;4999474;28;20037;-69
2023/05/04 09:20:24;;;;;;;2.63;1.20;;;;;;;16.75;25.76;102355.56;4998401;28;20502;-70
2023/05/04 09:23:05;;;;;;;4.07;1.10;;;;;;;15.87;26.50;102363.50;4997865;28;20037;-69
2023/05/04 09:25:50;;;;;;;4.85;1.20;;;;;;;15.71;26.36;102362.38;4996563;28;20049;-69
2023/05/04 09:28:17;;;;;;;2.42;1.00;;;;;;;15.65;27.26;102365.25;4996202;28;20033;-69
2023/05/04 09:30:44;;;;;;;7.70;1.23;;;;;;;16.17;27.18;102357.97;4998422;28;20029;-69
2023/05/04 09:33:10;;;;;;;3.72;0.88;;;;;;;16.03;25.88;102355.88;4996747;28;20438;-69
2023/05/04 09:35:39;;;;;;;4.07;0.90;;;;;;;15.57;26.40;102358.50;4997412;28;20040;-68
2023/05/04 09:38:06;;;;;;;5.47;0.68;;;;;;;16.01;26.36;102357.72;4973436;28;20037;-69
2023/05/04 09:40:35;;;;;;;2.25;0.77;;;;;;;16.00;25.74;102348.94;4998474;28;20523;-69
2023/05/04 09:43:01;;;;;;;3.60;1.15;;;;;;;16.37;25.74;102344.81;4993599;28;20040;-68
2023/05/04 09:45:38;;;;;;;4.47;0.93;;;;;;;15.57;27.29;102342.69;4998810;28;20041;-68
2023/05/04 09:48:33;;;;;;;3.92;1.30;;;;;;;15.95;26.37;102342.97;4996208;28;20041;-68
2023/05/04 09:51:06;;;;;;;6.47;0.98;;;;;;;15.75;25.88;102340.25;4997389;28;20045;-68
2023/05/04 09:53:32;;;;;;;4.78;0.70;;;;;;;16.18;25.73;102331.53;4996397;28;20084;-69
2023/05/04 09:56:15;;;;;;;4.47;1.27;;;;;;;16.38;26.51;102328.06;4997944;28;20139;-68
2023/05/04 09:58:42;;;;;;;3.47;1.00;;;;;;;16.30;25.71;102322.25;4998056;28;20041;-69
2023/05/04 10:01:08;;;;;;;3.67;1.00;;;;;;;16.48;25.60;102325.03;4996378;28;20245;-71
2023/05/04 10:03:34;;;;;;;3.08;0.98;;;;;;;16.48;26.72;102325.03;4992935;28;20752;-68
2023/05/04 10:06:03;;;;;;;3.42;0.93;;;;;;;16.51;25.12;102322.25;4999528;28;20037;-68
2023/05/04 10:08:28;;;;;;;4.35;0.52;;;;;;;16.78;25.29;102323.78;4995602;28;20129;-69
2023/05/04 10:10:54;;;;;;;4.75;1.00;;;;;;;16.99;25.05;102321.09;4999119;28;20049;-69
2023/05/04 10:13:20;;;;;;;5.70;0.85;;;;;;;16.97;24.53;102317.66;4995815;28;20041;-69
2023/05/04 10:16:10;;;;;;;5.15;1.15;;;;;;;16.25;25.89;102321.59;4999544;28;20095;-69
2023/05/04 10:19:26;;;;;;;4.30;0.82;;;;;;;15.44;26.29;102320.34;4996124;28;20045;-69
2023/05/04 10:22:13;;;;;;;3.08;0.60;;;;;;;15.65;26.34;102317.81;5009355;28;20101;-71
2023/05/04 10:24:48;;;;;;;3.00;1.05;;;;;;;15.94;26.55;102308.75;4994354;28;20541;-70
2023/05/04 10:27:39;;;;;;;5.15;1.40;;;;;;;15.96;26.88;102309.56;4997987;28;20044;-71
2023/05/04 10:30:06;;;;;;;1.92;0.65;;;;;;;15.83;26.54;102311.81;4995054;28;20046;-71
2023/05/04 10:32:38;;;;;;;2.50;0.95;;;;;;;16.07;27.01;102303.88;4996871;28;20025;-68
2023/05/04 10:35:07;;;;;;;;;;;;;;;16.37;25.24;102302.59;4985842;28;20464;-68
2023/05/04 10:37:35;;;;;;;6.18;1.10;;;;;;;16.69;25.48;102291.56;4990534;28;19924;-68
2023/05/04 10:40:00;;;;;;;4.15;1.55;;;;;;;16.53;26.75;102294.03;4983794;28;20736;-70
2023/05/04 10:42:26;;;;;;;3.58;1.23;;;;;;;17.15;25.78;102289.56;4998135;28;20041;-71
2023/05/04 10:44:55;;;;;;;2.90;0.98;;;;;;;16.55;25.57;102285.13;4998690;28;20033;-71
2023/05/04 10:47:31;;;;;;;2.60;0.70;;;;;;;16.86;26.02;102282.97;4980791;28;20434;-70
2023/05/04 10:50:05;;;;;;;6.63;1.55;;;;;;;17.25;25.19;102290.88;4998184;28;20075;-70
2023/05/04 10:52:31;;;;;;;8.38;1.95;;;;;;;16.82;25.73;102287.50;4999586;28;20754;-70
2023/05/04 10:55:02;;;;;;;5.43;1.55;;;;;;;16.80;26.01;102269.13;5000065;28;20094;-70
2023/05/04 10:57:29;;;;;;;5.03;1.63;;;;;;;16.88;25.84;102267.91;4994372;28;20034;-70
2023/05/04 10:59:56;;;;;;;7.40;1.67;;;;;;;16.95;26.01;102266.69;4995705;28;20535;-70
2023/05/04 11:02:23;;;;;;;3.83;1.08;;;;;;;16.25;26.40;102268.81;4989316;28;20871;-70
2023/05/04 11:05:05;;;;;;;5.68;1.42;;;;;;;16.25;26.63;102260.91;5000365;28;20126;-70
2023/05/04 11:07:40;;;;;;;3.47;1.33;;;;;;;17.26;25.72;102245.00;5000145;28;20037;-71
2023/05/04 11:10:08;;;;;;;7.22;1.63;;;;;;;17.03;24.98;102249.59;4991810;28;20498;-70
2023/05/04 11:12:36;;;;;;;6.30;1.42;;;;;;;17.58;25.43;102254.09;4991966;28;20033;-70
2023/05/04 11:15:08;;;;;;;2.15;1.10;;;;;;;17.55;24.23;102254.25;4990492;28;20041;-69
2023/05/04 11:17:51;;;;;;;2.78;1.40;;;;;;;16.60;25.93;102243.56;4993524;28;20905;-70
2023/05/04 11:20:23;;;;;;;2.75;0.73;;;;;;;16.68;26.07;102237.94;4993694;28;20039;-69
2023/05/04 11:22:49;;;;;;;3.55;0.73;;;;;;;16.76;26.35;102246.41;4996547;28;20116;-70
2023/05/04 11:25:16;;;;;;;2.75;1.45;;;;;;;17.40;25.20;102236.44;4993412;28;20079;-69
2023/05/04 11:27:42;;;;;;;4.93;1.05;;;;;;;17.92;24.60;102228.66;4990730;28;20061;-69
2023/05/04 11:30:08;;;;;;;2.60;1.00;;;;;;;17.80;24.87;102224.81;4995010;28;20045;-70